Fort Worth Nas Jrb/Carswell field
KNFW : rendu visible

Aérodrome :











RETROUVEZ-NOUS SUR...

 
LOGIN :

S'inscrire | Disclaimer

   EN    FR    IT 

 









Légende :    VFR   VFR Marginal   IFR   IFR Intensif   IFR Très Intensif
Visi : 
Plafond : 
>= 8 km
>= 3000ft
5 à 8 km
1000 à 3000 ft
1500m à 5 km
500 à 1000 ft
800 à 1500m
200 à 500 ft
< 800m
< 200 ft
Symboles :   Orages  Brouillard  Fortes neiges  Fortes précipitations  Vent > 20 kt






- Altitude de l'aérodrome : 650 ft


KNFW - Fort Worth Nas Jrb/Carswell field

DERNIER METAR :
  • 191252Z 32004KT 10SM FEW250 07/05 A2997 RMK AO2 SLP131 T00720050 VISNO N $

METARs EXPIRÉS :
  • 191203Z 00000KT 10SM FEW250 07/05 A2994 RMK AO2 T00720050 VISNO N $
  • 191152Z AUTO 00000KT 10SM CLR A2994 RMK AO2 SLP124 53003 VISNO N $
  • 191052Z AUTO 00000KT 8SM CLR A2993 RMK AO2 SLP121 VISNO N $

TAF TAF KNFW
Valide du 19 à 07h jusqu'au 20 à 07h UTC


1907/2007 VRB06KT 9999 FEW250 QNH2982INS
FM192100 15010KT 9999 FEW250 QNH2980INS AUTOMATED SENSOR METWATCH 1907 TIL 1912 T08/1913Z T26/1922Z FN00204



MET'MAP, la Météo Aéronautique d'un coup d'oeil ! - Copyright ORBIFLY Décembre 2007 - Disclaimer

ORBIFLY MET'MAP TEAM :

Programmation & Développement : Alexandra Zaïnal
Conception & Développement : Baudouin d'Aumeries
Co-Programmation & Développement : Marc-Olivier Méhu
Soutien technique & logistique : Manuel Goepfert

Contact : metmap@orbifly.com




SOURCES & CREDITS :

   NOAA       Earth
Advisory